TimeEST,TemperatureF,Dew PointF,Humidity,Sea Level PressureIn,VisibilityMPH,Wind Direction,Wind SpeedMPH,Gust SpeedMPH,PrecipitationIn,Events,Conditions,WindDirDegrees,DateUTC
12:16 AM,14.0,-4.0,45,29.83,10.0,West,3.5,-,N/A,,Clear,280,2013-02-05 05:16:00
12:35 AM,14.0,-5.8,41,29.84,10.0,WNW,3.5,-,N/A,,Clear,300,2013-02-05 05:35:00
12:55 AM,12.2,-4.0,48,29.84,10.0,WNW,3.5,-,N/A,,Clear,300,2013-02-05 05:55:00
1:15 AM,12.2,-4.0,48,29.85,10.0,WNW,4.6,-,N/A,,Clear,300,2013-02-05 06:15:00
1:35 AM,10.4,-4.0,52,29.85,10.0,NW,4.6,-,N/A,,Clear,310,2013-02-05 06:35:00
1:55 AM,10.4,-5.8,48,29.87,10.0,Calm,Calm,-,N/A,,Clear,0,2013-02-05 06:55:00
2:15 AM,10.4,-5.8,48,29.87,10.0,SW,3.5,-,N/A,,Clear,230,2013-02-05 07:15:00
2:35 AM,10.4,-5.8,48,29.87,10.0,WSW,4.6,-,N/A,,Clear,240,2013-02-05 07:35:00
2:55 AM,12.2,-5.8,45,29.87,10.0,WNW,3.5,-,N/A,,Clear,290,2013-02-05 07:55:00
3:15 AM,12.2,-7.6,41,29.88,10.0,WNW,3.5,-,N/A,,Clear,290,2013-02-05 08:15:00
3:35 AM,10.4,-7.6,44,29.88,10.0,NW,3.5,-,N/A,,Clear,310,2013-02-05 08:35:00
3:55 AM,10.4,-7.6,44,29.89,10.0,NW,5.8,-,N/A,,Clear,310,2013-02-05 08:55:00
4:15 AM,10.4,-7.6,44,29.89,10.0,North,3.5,-,N/A,,Clear,10,2013-02-05 09:15:00
4:35 AM,8.6,-7.6,48,29.90,10.0,Calm,Calm,-,N/A,,Clear,0,2013-02-05 09:35:00
4:55 AM,6.8,-7.6,52,29.90,10.0,Calm,Calm,-,N/A,,Clear,0,2013-02-05 09:55:00
5:15 AM,6.8,-4.0,61,29.91,10.0,Calm,Calm,-,N/A,,Clear,0,2013-02-05 10:15:00
5:35 AM,3.2,-2.2,78,29.91,10.0,Calm,Calm,-,N/A,,Clear,0,2013-02-05 10:35:00
5:55 AM,5.0,-2.2,72,29.91,10.0,Calm,Calm,-,N/A,,Clear,0,2013-02-05 10:55:00
6:15 AM,3.2,-4.0,72,29.92,10.0,Calm,Calm,-,N/A,,Clear,0,2013-02-05 11:15:00
6:35 AM,1.4,-2.2,85,29.92,10.0,Calm,Calm,-,N/A,,Clear,0,2013-02-05 11:35:00
6:55 AM,1.4,-4.0,78,29.94,10.0,Calm,Calm,-,N/A,,Clear,0,2013-02-05 11:55:00
7:15 AM,1.4,-0.4,92,29.94,10.0,Calm,Calm,-,N/A,,Clear,0,2013-02-05 12:15:00
7:35 AM,3.2,-2.2,78,29.96,10.0,Calm,Calm,-,N/A,,Clear,0,2013-02-05 12:35:00
7:55 AM,5.0,1.4,85,29.97,10.0,Calm,Calm,-,N/A,,Clear,0,2013-02-05 12:55:00
8:15 AM,6.8,1.4,79,29.98,10.0,Calm,Calm,-,N/A,,Clear,0,2013-02-05 13:15:00
8:35 AM,8.6,3.2,79,29.98,10.0,Calm,Calm,-,N/A,,Clear,0,2013-02-05 13:35:00
8:55 AM,10.4,-2.2,57,29.98,10.0,North,3.5,-,N/A,,Clear,360,2013-02-05 13:55:00
9:15 AM,12.2,-4.0,48,29.99,10.0,Calm,Calm,-,N/A,,Clear,0,2013-02-05 14:15:00
9:35 AM,12.2,-0.4,57,29.99,10.0,Calm,Calm,-,N/A,,Clear,0,2013-02-05 14:35:00
9:55 AM,14.0,-5.8,41,30.00,10.0,Calm,Calm,-,N/A,,Clear,0,2013-02-05 14:55:00
10:15 AM,15.8,-4.0,41,30.00,10.0,Calm,Calm,-,N/A,,Clear,0,2013-02-05 15:15:00
10:35 AM,15.8,-5.8,38,30.00,10.0,NE,4.6,-,N/A,,Clear,40,2013-02-05 15:35:00
10:55 AM,17.6,-4.0,38,30.00,10.0,NW,3.5,-,N/A,,Clear,320,2013-02-05 15:55:00
11:15 AM,17.6,-4.0,38,30.00,10.0,WSW,8.1,-,N/A,,Clear,250,2013-02-05 16:15:00
11:35 AM,17.6,-5.8,35,29.98,10.0,SW,4.6,-,N/A,,Clear,220,2013-02-05 16:35:00
11:56 AM,19.4,-4.0,36,29.98,10.0,North,6.9,-,N/A,,Clear,360,2013-02-05 16:56:00
12:15 PM,19.4,-5.8,33,29.97,10.0,NNW,5.8,-,N/A,,Clear,340,2013-02-05 17:15:00
12:35 PM,19.4,-5.8,33,29.96,10.0,Calm,Calm,-,N/A,,Clear,0,2013-02-05 17:35:00
12:55 PM,19.4,-7.6,30,29.96,10.0,Calm,Calm,-,N/A,,Clear,0,2013-02-05 17:55:00
1:15 PM,21.2,-7.6,28,29.97,10.0,Calm,Calm,-,N/A,,Clear,0,2013-02-05 18:15:00
1:35 PM,21.2,-7.6,28,29.97,10.0,Calm,Calm,-,N/A,,Clear,0,2013-02-05 18:35:00
1:55 PM,21.2,-7.6,28,29.96,10.0,Calm,Calm,-,N/A,,Clear,0,2013-02-05 18:55:00
2:15 PM,23.0,-7.6,26,29.96,10.0,Calm,Calm,-,N/A,,Clear,0,2013-02-05 19:15:00
2:35 PM,23.0,-7.6,26,29.97,10.0,Calm,Calm,-,N/A,,Clear,0,2013-02-05 19:35:00
2:55 PM,23.0,-9.4,24,29.96,10.0,SSW,4.6,-,N/A,,Clear,210,2013-02-05 19:55:00
3:15 PM,23.0,-9.4,24,29.96,10.0,Calm,Calm,-,N/A,,Clear,0,2013-02-05 20:15:00
3:35 PM,23.0,-9.4,24,29.96,10.0,North,3.5,-,N/A,,Clear,10,2013-02-05 20:35:00
3:55 PM,23.0,-7.6,26,29.95,10.0,North,3.5,-,N/A,,Clear,10,2013-02-05 20:55:00
4:15 PM,23.0,-7.6,26,29.95,10.0,SE,3.5,-,N/A,,Clear,140,2013-02-05 21:15:00
4:35 PM,21.2,-7.6,28,29.96,10.0,East,3.5,-,N/A,,Clear,100,2013-02-05 21:35:00
4:55 PM,21.2,-5.8,30,29.95,10.0,East,3.5,-,N/A,,Clear,100,2013-02-05 21:55:00
5:15 PM,21.2,-7.6,28,29.95,10.0,SSE,9.2,-,N/A,,Clear,160,2013-02-05 22:15:00
5:35 PM,19.4,-0.4,42,29.96,10.0,SSE,4.6,-,N/A,,Clear,160,2013-02-05 22:35:00
5:55 PM,19.4,-0.4,42,29.96,10.0,South,3.5,-,N/A,,Clear,170,2013-02-05 22:55:00
6:15 PM,19.4,-0.4,42,29.96,10.0,SE,3.5,-,N/A,,Clear,140,2013-02-05 23:15:00
6:35 PM,19.4,1.4,46,29.97,10.0,SE,4.6,-,N/A,,Clear,140,2013-02-05 23:35:00
6:55 PM,19.4,1.4,46,29.95,10.0,SE,4.6,-,N/A,,Clear,130,2013-02-05 23:55:00
7:16 PM,17.6,1.4,49,29.95,10.0,Calm,Calm,-,N/A,,Clear,0,2013-02-06 00:16:00
7:35 PM,15.8,1.4,53,29.96,10.0,Calm,Calm,-,N/A,,Clear,0,2013-02-06 00:35:00
7:55 PM,17.6,3.2,53,29.96,10.0,Calm,Calm,-,N/A,,Clear,0,2013-02-06 00:55:00
8:15 PM,17.6,3.2,53,29.96,10.0,Calm,Calm,-,N/A,,Clear,0,2013-02-06 01:15:00
8:55 PM,17.6,3.2,53,29.96,10.0,Calm,Calm,-,N/A,,Clear,0,2013-02-06 01:55:00
9:15 PM,15.8,6.8,68,29.97,10.0,Calm,Calm,-,N/A,,Clear,0,2013-02-06 02:15:00
9:35 PM,15.8,6.8,68,29.97,10.0,NNE,3.5,-,N/A,,Clear,30,2013-02-06 02:35:00
9:55 PM,15.8,6.8,68,29.96,10.0,Calm,Calm,-,N/A,,Clear,0,2013-02-06 02:55:00
10:15 PM,15.8,5.0,62,29.96,10.0,Calm,Calm,-,N/A,,Partly Cloudy,0,2013-02-06 03:15:00
10:35 PM,12.2,6.8,79,29.96,10.0,Calm,Calm,-,N/A,,Partly Cloudy,0,2013-02-06 03:35:00
10:55 PM,12.2,6.8,79,29.96,10.0,Calm,Calm,-,N/A,,Clear,0,2013-02-06 03:55:00
11:15 PM,12.2,6.8,79,29.95,10.0,Calm,Calm,-,N/A,,Clear,0,2013-02-06 04:15:00
11:35 PM,14.0,6.8,73,29.95,10.0,North,4.6,-,N/A,,Partly Cloudy,10,2013-02-06 04:35:00
11:55 PM,14.0,5.0,67,29.95,10.0,North,4.6,-,N/A,,Scattered Clouds,360,2013-02-06 04:55:00